Culver, Kansas
Current Conditions -  °F | °C
As of 11:53 AM on Friday 24 Oct 2014 (Local Time) from KSLN Reporting Station
Clear Clear  
Wind Chill: 68°   Ceiling: Unl
Heat Index: 68°   Visibility: 9mi
Dew Point: 62°   Wind: 14mph
Humidity: 81%   Direction: 200°SSW
Pressure: 30.04"   Gusts: NA
Location:  38.9793°N, 97.8136°W
Report Text: KSLN 241653Z 20012KT 9SM CLR 20/17 A3004 RMK AO2 SLP164 T02000167
Loading
Personal Weather Stations






























Interactive Weather Map
Tropical Storm Tracking
New forecast layout! Learn more

10-Day Weather Forecast

Advertisements
Track Severe Weather on mobile